createdAt,value
2023-03-12T00:02:26.662Z,2.67
2023-03-12T00:06:32.992Z,2.10
2023-03-12T00:10:40.351Z,2.40
2023-03-12T00:14:45.831Z,2.23
2023-03-12T00:18:56.207Z,2.70
2023-03-12T00:23:01.726Z,1.90
2023-03-12T00:27:07.311Z,2.50
2023-03-12T00:31:25.929Z,2.20
2023-03-12T00:35:32.911Z,2.73
2023-03-12T00:39:38.390Z,2.60
2023-03-12T00:43:43.829Z,2.77
2023-03-12T00:47:50.151Z,2.90
2023-03-12T00:51:55.849Z,3.00
2023-03-12T00:56:02.049Z,2.93
2023-03-12T01:00:11.764Z,2.87
2023-03-12T01:04:17.817Z,3.40
2023-03-12T01:08:23.882Z,3.33
2023-03-12T01:12:29.466Z,3.00
2023-03-12T01:16:35.304Z,3.90
2023-03-12T01:20:41.283Z,4.20
2023-03-12T01:24:46.993Z,3.83
2023-03-12T01:28:52.518Z,3.50
2023-03-12T01:32:58.354Z,3.57
2023-03-12T01:37:03.951Z,4.00
2023-03-12T01:41:09.453Z,3.50
2023-03-12T01:45:58.549Z,3.87
2023-03-12T01:50:05.016Z,3.00
2023-03-12T01:54:20.177Z,2.80
2023-03-12T01:58:28.167Z,2.40
2023-03-12T02:02:35.629Z,2.60
2023-03-12T02:07:10.358Z,2.10
2023-03-12T02:11:15.801Z,2.30
2023-03-12T02:15:21.981Z,2.57
2023-03-12T02:19:48.789Z,2.27
2023-03-12T02:24:31.097Z,2.43
2023-03-12T02:28:42.760Z,2.13
2023-03-12T02:32:50.425Z,2.03
2023-03-12T02:36:56.114Z,2.20
2023-03-12T02:41:24.466Z,2.57
2023-03-12T02:45:30.247Z,2.60
2023-03-12T02:49:36.061Z,2.47
2023-03-12T02:53:41.536Z,2.30
2023-03-12T02:57:47.053Z,2.03
2023-03-12T03:01:58.370Z,2.40
2023-03-12T03:06:04.179Z,2.17
2023-03-12T03:10:10.914Z,1.90
2023-03-12T03:14:16.649Z,1.97
2023-03-12T03:18:22.212Z,1.77
2023-03-12T03:22:28.262Z,2.00
2023-03-12T03:26:33.838Z,2.10
2023-03-12T03:30:39.384Z,1.80
2023-03-12T03:34:45.501Z,2.30
2023-03-12T03:38:51.002Z,2.77
2023-03-12T03:42:56.603Z,2.07
2023-03-12T03:47:02.550Z,2.33
2023-03-12T03:51:10.143Z,1.87
2023-03-12T03:55:15.751Z,1.93
2023-03-12T03:59:21.303Z,2.50
2023-03-12T04:03:27.025Z,2.30
2023-03-12T04:07:33.059Z,2.87
2023-03-12T04:11:39.120Z,2.70
2023-03-12T04:15:53.529Z,3.33
2023-03-12T04:19:59.013Z,2.80
2023-03-12T04:24:05.069Z,3.20
2023-03-12T04:28:10.531Z,3.10
2023-03-12T04:32:16.149Z,3.30
2023-03-12T04:36:21.803Z,3.30
2023-03-12T04:40:27.987Z,3.53
2023-03-12T04:44:33.492Z,2.67
2023-03-12T04:48:39.052Z,3.23
2023-03-12T04:52:44.556Z,4.77
2023-03-12T04:56:50.902Z,5.73
2023-03-12T05:00:56.422Z,5.70
2023-03-12T05:05:02.008Z,7.07
2023-03-12T05:09:07.671Z,5.33
2023-03-12T05:13:19.397Z,7.00
2023-03-12T05:17:24.955Z,6.60
2023-03-12T05:21:30.710Z,7.00
2023-03-12T05:25:40.776Z,7.63
2023-03-12T05:29:46.269Z,8.03
2023-03-12T05:33:52.975Z,7.93
2023-03-12T05:37:58.952Z,7.10
2023-03-12T05:42:05.480Z,6.37
2023-03-12T05:46:11.194Z,6.80
2023-03-12T05:50:16.846Z,6.30
2023-03-12T05:54:22.936Z,7.40
2023-03-12T05:58:28.446Z,7.40
2023-03-12T06:02:33.945Z,7.73
2023-03-12T06:06:39.480Z,7.70
2023-03-12T06:10:44.926Z,7.03
2023-03-12T06:14:50.460Z,7.10
2023-03-12T06:18:59.103Z,7.33
2023-03-12T06:23:04.537Z,6.50
2023-03-12T06:27:10.012Z,7.00
2023-03-12T06:31:17.142Z,7.67
2023-03-12T06:35:22.720Z,7.53
2023-03-12T06:39:29.961Z,8.20
2023-03-12T06:43:37.965Z,8.20
2023-03-12T06:47:43.421Z,8.20
2023-03-12T06:51:48.999Z,7.23
2023-03-12T06:55:54.554Z,8.50
2023-03-12T07:00:00.014Z,7.20
2023-03-12T07:04:05.522Z,7.90
2023-03-12T07:08:11.016Z,7.80
2023-03-12T07:12:16.469Z,7.50
2023-03-12T07:16:21.959Z,6.53
2023-03-12T07:20:27.470Z,7.27
2023-03-12T07:24:33.075Z,6.80
2023-03-12T07:28:38.516Z,7.80
2023-03-12T07:32:44.054Z,7.87
2023-03-12T07:36:49.584Z,7.90
2023-03-12T07:40:58.259Z,8.97
2023-03-12T07:45:04.456Z,7.90
2023-03-12T07:49:10.096Z,6.80
2023-03-12T07:53:16.240Z,7.10
2023-03-12T07:57:22.390Z,7.20
2023-03-12T08:01:32.170Z,6.53
2023-03-12T08:05:37.971Z,7.67
2023-03-12T08:09:44.133Z,7.60
2023-03-12T08:13:49.992Z,7.97
2023-03-12T08:17:55.571Z,7.30
2023-03-12T08:22:01.100Z,7.50
2023-03-12T08:26:06.673Z,9.13
2023-03-12T08:30:13.299Z,9.63
2023-03-12T08:34:18.784Z,9.80
2023-03-12T08:38:24.474Z,11.00
2023-03-12T08:42:29.992Z,12.37
2023-03-12T08:46:35.533Z,13.47
2023-03-12T08:50:41.092Z,12.67
2023-03-12T08:54:46.597Z,12.80
2023-03-12T08:58:52.220Z,13.27
2023-03-12T09:02:58.470Z,12.33
2023-03-12T09:07:04.669Z,12.83
2023-03-12T09:15:17.293Z,13.00
2023-03-12T09:19:22.862Z,10.57
2023-03-12T09:23:29.456Z,12.50
2023-03-12T09:27:43.717Z,11.53
2023-03-12T09:31:49.374Z,10.97
2023-03-12T09:35:59.670Z,11.13
2023-03-12T09:40:09.311Z,9.30
2023-03-12T09:44:34.760Z,9.30
2023-03-12T09:48:41.107Z,7.53
2023-03-12T09:53:06.359Z,7.20
2023-03-12T09:57:22.281Z,6.77
2023-03-12T10:01:44.763Z,5.20
2023-03-12T10:06:16.738Z,5.10
2023-03-12T10:10:50.473Z,4.80
2023-03-12T10:15:17.981Z,4.40
2023-03-12T10:19:38.575Z,3.90
2023-03-12T10:24:11.202Z,3.10
2023-03-12T10:28:30.753Z,3.70
2023-03-12T10:33:01.774Z,2.90
2023-03-12T10:37:24.240Z,2.63
2023-03-12T10:41:34.925Z,2.50
2023-03-12T10:50:28.468Z,2.03
2023-03-12T10:54:44.734Z,2.70
2023-03-12T10:58:54.054Z,2.33
2023-03-12T11:03:18.455Z,2.37
2023-03-12T11:07:33.392Z,2.10
2023-03-12T11:11:38.917Z,2.17
2023-03-12T11:15:44.569Z,2.20
2023-03-12T13:29:44.678Z,2.40
2023-03-12T13:34:20.134Z,2.60
2023-03-12T14:47:57.835Z,2.20
2023-03-12T14:52:03.301Z,2.67
2023-03-12T14:56:16.823Z,1.90
2023-03-12T15:00:26.599Z,2.87
2023-03-12T15:04:35.168Z,2.40
2023-03-12T15:08:44.322Z,2.87
2023-03-12T15:12:53.085Z,2.10
2023-03-12T15:17:00.462Z,2.60
2023-03-12T15:21:07.568Z,2.80
2023-03-12T15:25:29.916Z,2.67
2023-03-12T15:29:41.752Z,2.57
2023-03-12T15:34:02.330Z,2.00
2023-03-12T15:38:16.023Z,2.50
2023-03-12T15:42:25.152Z,2.17
2023-03-12T15:46:31.125Z,2.70
2023-03-12T15:50:42.816Z,2.40
2023-03-12T15:55:26.673Z,2.43
2023-03-12T15:59:32.546Z,2.30
2023-03-12T16:03:39.454Z,2.70
2023-03-12T16:07:45.059Z,2.63
2023-03-12T16:11:52.977Z,2.40
2023-03-12T16:15:59.436Z,2.37
2023-03-12T16:20:06.189Z,2.40
2023-03-12T16:24:12.051Z,2.33
2023-03-12T16:28:20.796Z,2.60
2023-03-12T16:32:26.414Z,2.30
2023-03-12T16:36:32.371Z,2.33
2023-03-12T16:40:42.899Z,2.03
2023-03-12T16:44:48.725Z,2.40
2023-03-12T16:48:54.269Z,2.53
2023-03-12T16:52:59.845Z,2.23
2023-03-12T16:57:05.503Z,2.10
2023-03-12T17:01:14.784Z,2.30
2023-03-12T17:05:20.788Z,2.03
2023-03-12T17:09:26.240Z,2.10
2023-03-12T17:13:31.847Z,2.47
2023-03-12T17:17:37.349Z,2.20
2023-03-12T17:21:43.387Z,2.37
2023-03-12T17:25:48.920Z,2.70
2023-03-12T17:29:54.564Z,2.23
2023-03-12T17:34:03.271Z,2.40
2023-03-12T17:38:09.950Z,2.23
2023-03-12T17:42:15.405Z,2.40
2023-03-12T17:46:20.946Z,2.23
2023-03-12T17:50:26.655Z,1.70
2023-03-12T17:54:32.202Z,2.00
2023-03-12T17:58:37.930Z,2.00
2023-03-12T18:02:43.800Z,2.43
2023-03-12T18:06:49.897Z,1.70
2023-03-12T18:10:55.952Z,1.73
2023-03-12T18:15:01.416Z,1.73
2023-03-12T18:19:06.949Z,1.93
2023-03-12T18:23:12.461Z,2.50
2023-03-12T18:27:17.941Z,2.00
2023-03-12T18:31:23.588Z,2.37
2023-03-12T18:35:30.383Z,2.07
2023-03-12T18:39:36.055Z,2.17
2023-03-12T18:43:41.978Z,2.13
2023-03-12T18:47:50.223Z,2.30
2023-03-12T18:51:56.155Z,2.30
2023-03-12T18:56:01.821Z,2.50
2023-03-12T19:00:13.129Z,2.50
2023-03-12T19:04:19.838Z,2.47
2023-03-12T19:08:25.402Z,2.70
2023-03-12T19:12:36.574Z,3.10
2023-03-12T19:16:44.864Z,2.90
2023-03-12T19:20:50.370Z,3.50
2023-03-12T19:24:56.172Z,3.30
2023-03-12T19:29:01.951Z,3.70
2023-03-12T19:33:08.448Z,3.73
2023-03-12T19:37:14.553Z,4.20
2023-03-12T19:41:20.081Z,4.97
2023-03-12T19:45:26.112Z,4.37
2023-03-12T19:49:31.696Z,4.87
2023-03-12T19:53:38.002Z,4.90
2023-03-12T19:57:43.538Z,6.00
2023-03-12T20:01:49.036Z,6.50
2023-03-12T20:05:54.761Z,7.60
2023-03-12T20:10:00.256Z,7.17
2023-03-12T20:14:06.144Z,7.67
2023-03-12T20:18:11.635Z,8.00
2023-03-12T20:22:17.119Z,9.40
2023-03-12T20:26:23.937Z,9.60
2023-03-12T20:30:29.440Z,9.10
2023-03-12T20:34:35.068Z,9.50
2023-03-12T20:38:41.383Z,11.00
2023-03-12T20:42:46.912Z,12.97
2023-03-12T20:46:52.381Z,12.93
2023-03-12T20:50:58.516Z,13.40
2023-03-12T20:55:05.050Z,15.07
2023-03-12T20:59:12.248Z,16.17
2023-03-12T21:03:19.286Z,16.13
2023-03-12T21:07:24.840Z,18.87
2023-03-12T21:11:31.354Z,16.50
2023-03-12T21:15:38.262Z,17.53
2023-03-12T21:19:43.943Z,19.80
2023-03-12T21:23:49.587Z,18.17
2023-03-12T21:27:55.336Z,18.57
2023-03-12T21:32:00.900Z,18.57
2023-03-12T21:36:13.182Z,19.10
2023-03-12T21:40:18.870Z,18.97
2023-03-12T21:44:25.829Z,18.50
2023-03-12T21:48:31.273Z,17.53
2023-03-12T21:52:43.102Z,18.20
2023-03-12T21:56:48.960Z,16.97
2023-03-12T22:01:06.705Z,17.40
2023-03-12T22:05:12.402Z,16.73
2023-03-12T22:09:18.502Z,15.43
2023-03-12T22:13:23.968Z,13.33
2023-03-12T22:17:29.746Z,13.90
2023-03-12T22:21:35.285Z,14.03
2023-03-12T22:25:40.749Z,13.30
2023-03-12T22:29:46.215Z,11.50
2023-03-12T22:33:52.008Z,11.77
2023-03-12T22:37:57.507Z,12.77
2023-03-12T22:42:03.105Z,11.10
2023-03-12T22:50:14.120Z,11.10
2023-03-12T22:54:19.713Z,10.07
2023-03-12T22:58:25.364Z,11.03
2023-03-12T23:02:30.936Z,9.47
2023-03-12T23:06:36.507Z,9.47
2023-03-12T23:10:41.936Z,9.90
2023-03-12T23:14:47.503Z,9.93
2023-03-12T23:18:53.487Z,8.23
2023-03-12T23:22:58.925Z,7.97
2023-03-12T23:27:05.230Z,7.93
2023-03-12T23:31:11.159Z,7.77
2023-03-12T23:35:16.752Z,6.20
2023-03-12T23:39:22.665Z,7.33
